createdAt,value
2019-02-15T00:00:40.392Z,980.29
2019-02-15T00:01:40.386Z,980.27
2019-02-15T00:02:40.379Z,980.26
2019-02-15T00:03:40.379Z,980.25
2019-02-15T00:04:40.358Z,980.29
2019-02-15T00:05:40.354Z,980.28
2019-02-15T00:06:40.341Z,980.28
2019-02-15T00:07:40.331Z,980.23
2019-02-15T00:08:40.324Z,980.24
2019-02-15T00:09:40.318Z,980.22
2019-02-15T00:10:40.304Z,980.25
2019-02-15T00:11:40.297Z,980.19
2019-02-15T00:12:40.287Z,980.24
2019-02-15T00:13:40.279Z,980.23
2019-02-15T00:14:40.273Z,980.18
2019-02-15T00:15:40.263Z,980.19
2019-02-15T00:16:40.249Z,980.20
2019-02-15T00:17:40.245Z,980.23
2019-02-15T00:18:40.238Z,980.23
2019-02-15T00:19:40.225Z,980.22
2019-02-15T00:20:40.215Z,980.24
2019-02-15T00:21:40.208Z,980.23
2019-02-15T00:22:40.209Z,980.18
2019-02-15T00:23:40.191Z,980.25
2019-02-15T00:24:40.188Z,980.26
2019-02-15T00:25:40.175Z,980.24
2019-02-15T00:26:40.165Z,980.18
2019-02-15T00:27:40.151Z,980.23
2019-02-15T00:28:40.166Z,980.24
2019-02-15T00:29:40.139Z,980.29
2019-02-15T00:30:40.128Z,980.24
2019-02-15T00:31:40.123Z,980.23
2019-02-15T00:32:40.113Z,980.26
2019-02-15T00:33:40.101Z,980.26
2019-02-15T00:34:40.095Z,980.28
2019-02-15T00:35:40.086Z,980.25
2019-02-15T00:36:40.074Z,980.22
2019-02-15T00:37:40.070Z,980.26
2019-02-15T00:38:40.058Z,980.26
2019-02-15T00:39:40.049Z,980.27
2019-02-15T00:40:40.039Z,980.21
2019-02-15T00:41:40.034Z,980.30
2019-02-15T00:42:40.021Z,980.31
2019-02-15T00:43:40.012Z,980.27
2019-02-15T00:44:40.006Z,980.26
2019-02-15T00:45:39.994Z,980.30
2019-02-15T00:46:39.989Z,980.29
2019-02-15T00:47:39.976Z,980.26
2019-02-15T00:48:39.969Z,980.28
2019-02-15T00:49:39.959Z,980.28
2019-02-15T00:50:39.951Z,980.26
2019-02-15T00:51:39.941Z,980.28
2019-02-15T00:52:39.937Z,980.27
2019-02-15T00:53:39.924Z,980.28
2019-02-15T00:54:39.918Z,980.28
2019-02-15T00:55:39.917Z,980.28
2019-02-15T00:56:39.912Z,980.31
2019-02-15T00:57:39.889Z,980.34
2019-02-15T00:58:39.879Z,980.31
2019-02-15T00:59:39.871Z,980.31
2019-02-15T01:00:39.868Z,980.30
2019-02-15T01:01:39.882Z,980.25
2019-02-15T01:02:39.846Z,980.26
2019-02-15T01:03:39.833Z,980.27
2019-02-15T01:04:39.825Z,980.29
2019-02-15T01:05:39.817Z,980.26
2019-02-15T01:06:39.810Z,980.26
2019-02-15T01:07:39.799Z,980.22
2019-02-15T01:08:39.792Z,980.22
2019-02-15T01:09:39.780Z,980.25
2019-02-15T01:10:39.772Z,980.24
2019-02-15T01:11:39.765Z,980.24
2019-02-15T01:12:39.756Z,980.23
2019-02-15T01:13:39.776Z,980.25
2019-02-15T01:14:39.737Z,980.24
2019-02-15T01:15:39.727Z,980.23
2019-02-15T01:16:39.716Z,980.20
2019-02-15T01:17:39.708Z,980.25
2019-02-15T01:18:39.700Z,980.23
2019-02-15T01:19:39.691Z,980.23
2019-02-15T01:20:39.681Z,980.26
2019-02-15T01:21:39.675Z,980.21
2019-02-15T01:22:39.673Z,980.18
2019-02-15T01:23:39.654Z,980.22
2019-02-15T01:24:39.649Z,980.25
2019-02-15T01:25:39.647Z,980.26
2019-02-15T01:26:39.634Z,980.18
2019-02-15T01:27:39.625Z,980.17
2019-02-15T01:28:39.613Z,980.22
2019-02-15T01:29:39.606Z,980.25
2019-02-15T01:30:39.593Z,980.20
2019-02-15T01:31:39.581Z,980.21
2019-02-15T01:32:39.579Z,980.21
2019-02-15T01:33:39.566Z,980.22
2019-02-15T01:34:39.557Z,980.25
2019-02-15T01:35:39.549Z,980.29
2019-02-15T01:36:39.545Z,980.23
2019-02-15T01:37:39.528Z,980.27
2019-02-15T01:38:39.520Z,980.23
2019-02-15T01:39:39.510Z,980.23
2019-02-15T01:40:39.525Z,980.24
2019-02-15T01:41:39.494Z,980.20
2019-02-15T01:42:39.486Z,980.18
2019-02-15T01:43:40.366Z,980.18
2019-02-15T01:44:39.808Z,980.16
2019-02-15T01:45:39.461Z,980.17
2019-02-15T01:46:39.513Z,980.17
2019-02-15T01:47:40.192Z,980.09
2019-02-15T01:48:39.439Z,980.10
2019-02-15T01:49:39.420Z,980.11
2019-02-15T01:50:39.414Z,980.13
2019-02-15T01:51:39.405Z,980.12
2019-02-15T01:52:39.394Z,980.08
2019-02-15T01:53:39.384Z,980.11
2019-02-15T01:54:39.376Z,980.11
2019-02-15T01:55:39.367Z,980.08
2019-02-15T01:56:39.358Z,980.09
2019-02-15T01:57:39.351Z,980.10
2019-02-15T01:58:39.340Z,980.07
2019-02-15T01:59:39.332Z,980.09
2019-02-15T02:00:39.328Z,980.10
2019-02-15T02:01:41.398Z,980.09
2019-02-15T02:02:39.304Z,980.11
2019-02-15T02:03:39.292Z,980.09
2019-02-15T02:04:39.284Z,980.08
2019-02-15T02:05:39.277Z,980.08
2019-02-15T02:06:39.269Z,980.07
2019-02-15T02:07:39.261Z,980.10
2019-02-15T02:08:39.251Z,980.07
2019-02-15T02:09:39.241Z,980.08
2019-02-15T02:10:39.233Z,980.10
2019-02-15T02:11:39.223Z,980.13
2019-02-15T02:12:39.221Z,980.09
2019-02-15T02:13:39.202Z,980.11
2019-02-15T02:14:39.195Z,980.13
2019-02-15T02:15:39.191Z,980.06
2019-02-15T02:16:39.176Z,980.02
2019-02-15T02:17:39.173Z,980.08
2019-02-15T02:18:39.158Z,980.04
2019-02-15T02:19:39.149Z,980.02
2019-02-15T02:20:39.140Z,980.01
2019-02-15T02:21:39.132Z,980.05
2019-02-15T02:22:39.123Z,980.04
2019-02-15T02:23:39.112Z,980.00
2019-02-15T02:24:39.102Z,979.99
2019-02-15T02:25:39.100Z,979.97
2019-02-15T02:26:39.088Z,980.01
2019-02-15T02:27:39.074Z,979.99
2019-02-15T02:28:39.066Z,980.01
2019-02-15T02:29:39.062Z,980.00
2019-02-15T02:30:39.052Z,980.03
2019-02-15T02:31:39.040Z,980.07
2019-02-15T02:32:39.036Z,980.02
2019-02-15T02:33:39.024Z,979.99
2019-02-15T02:34:39.013Z,979.98
2019-02-15T02:35:39.005Z,979.95
2019-02-15T02:36:38.994Z,979.96
2019-02-15T02:37:38.986Z,979.97
2019-02-15T02:38:38.975Z,980.00
2019-02-15T02:39:38.979Z,979.97
2019-02-15T02:40:38.961Z,979.96
2019-02-15T02:41:38.958Z,979.99
2019-02-15T02:42:38.942Z,979.97
2019-02-15T02:43:38.929Z,979.95
2019-02-15T02:44:38.934Z,979.95
2019-02-15T02:45:38.924Z,979.96
2019-02-15T02:46:38.912Z,979.93
2019-02-15T02:47:38.892Z,979.89
2019-02-15T02:48:38.895Z,979.91
2019-02-15T02:49:38.886Z,979.92
2019-02-15T02:50:38.873Z,979.93
2019-02-15T02:51:38.867Z,979.90
2019-02-15T02:52:38.855Z,979.88
2019-02-15T02:53:38.883Z,979.90
2019-02-15T02:54:38.834Z,979.86
2019-02-15T02:55:38.819Z,979.85
2019-02-15T02:56:38.813Z,979.81
2019-02-15T02:57:38.803Z,979.81
2019-02-15T02:58:38.793Z,979.84
2019-02-15T02:59:38.784Z,979.80
2019-02-15T03:00:38.773Z,979.82
2019-02-15T03:01:38.767Z,979.81
2019-02-15T03:02:38.768Z,979.83
2019-02-15T03:03:38.748Z,979.81
2019-02-15T03:04:38.738Z,979.78
2019-02-15T03:05:38.732Z,979.80
2019-02-15T03:06:38.719Z,979.75
2019-02-15T03:07:38.718Z,979.76
2019-02-15T03:08:38.702Z,979.79
2019-02-15T03:09:38.691Z,979.75
2019-02-15T03:10:38.690Z,979.76
2019-02-15T03:11:38.737Z,979.76
2019-02-15T03:12:38.677Z,979.75
2019-02-15T03:13:38.656Z,979.73
2019-02-15T03:14:38.652Z,979.73
2019-02-15T03:15:38.673Z,979.75
2019-02-15T03:16:38.647Z,979.78
2019-02-15T03:17:38.619Z,979.79
2019-02-15T03:18:38.613Z,979.80
2019-02-15T03:19:38.605Z,979.83
2019-02-15T03:20:38.613Z,979.84
2019-02-15T03:21:38.582Z,979.80
2019-02-15T03:22:38.576Z,979.80
2019-02-15T03:23:38.567Z,979.79
2019-02-15T03:24:38.552Z,979.78
2019-02-15T03:25:38.548Z,979.75
2019-02-15T03:26:38.547Z,979.72
2019-02-15T03:27:38.529Z,979.74
2019-02-15T03:28:38.515Z,979.73
2019-02-15T03:29:38.506Z,979.73
2019-02-15T03:30:38.511Z,979.77
2019-02-15T03:31:38.549Z,979.73
2019-02-15T03:32:38.534Z,979.77
2019-02-15T03:33:38.479Z,979.78
2019-02-15T03:34:38.470Z,979.74
2019-02-15T03:35:38.454Z,979.71
2019-02-15T03:36:38.454Z,979.73
2019-02-15T03:37:38.451Z,979.74
2019-02-15T03:38:38.435Z,979.77
2019-02-15T03:39:38.414Z,979.78
2019-02-15T03:40:38.412Z,979.78
2019-02-15T03:41:38.401Z,979.76
2019-02-15T03:42:38.388Z,979.75
2019-02-15T03:43:38.379Z,979.77
2019-02-15T03:44:38.373Z,979.76
2019-02-15T03:45:38.386Z,979.78
2019-02-15T03:46:38.379Z,979.76
2019-02-15T03:47:38.347Z,979.82
2019-02-15T03:48:38.375Z,979.79
2019-02-15T03:49:38.368Z,979.82
2019-02-15T03:50:38.361Z,979.82
2019-02-15T03:51:38.329Z,979.76
2019-02-15T03:52:38.301Z,979.79
2019-02-15T03:53:38.294Z,979.77
2019-02-15T03:54:38.277Z,979.78
2019-02-15T03:55:38.269Z,979.81
2019-02-15T03:56:38.280Z,979.80
2019-02-15T03:57:38.249Z,979.78
2019-02-15T03:58:38.250Z,979.77
2019-02-15T03:59:38.230Z,979.79
2019-02-15T04:00:38.219Z,979.81
2019-02-15T04:01:38.216Z,979.83
2019-02-15T04:02:38.206Z,979.86
2019-02-15T04:03:38.194Z,979.86
2019-02-15T04:04:38.184Z,979.85
2019-02-15T04:05:38.175Z,979.88
2019-02-15T04:06:38.166Z,979.87
2019-02-15T04:07:38.155Z,979.85
2019-02-15T04:08:38.167Z,979.86
2019-02-15T04:09:38.138Z,979.85
2019-02-15T04:10:38.135Z,979.83
2019-02-15T04:11:38.145Z,979.84
2019-02-15T04:12:38.108Z,979.81
2019-02-15T04:13:38.101Z,979.86
2019-02-15T04:14:38.093Z,979.90
2019-02-15T04:15:38.082Z,979.86
2019-02-15T04:16:38.075Z,979.88
2019-02-15T04:17:38.075Z,979.86
2019-02-15T04:18:38.069Z,979.86
2019-02-15T04:19:38.051Z,979.84
2019-02-15T04:20:38.038Z,979.79
2019-02-15T04:21:38.029Z,979.75
2019-02-15T04:22:38.017Z,979.71
2019-02-15T04:23:38.005Z,979.75
2019-02-15T04:24:37.996Z,979.73
2019-02-15T04:25:37.988Z,979.72
2019-02-15T04:26:37.978Z,979.74
2019-02-15T04:27:37.968Z,979.70
2019-02-15T04:28:37.959Z,979.71
2019-02-15T04:29:37.965Z,979.71
2019-02-15T04:30:37.940Z,979.72
2019-02-15T04:31:37.937Z,979.71
2019-02-15T04:32:37.923Z,979.71
2019-02-15T04:33:37.912Z,979.68
2019-02-15T04:34:37.904Z,979.72
2019-02-15T04:35:37.900Z,979.72
2019-02-15T04:36:37.890Z,979.69
2019-02-15T04:37:37.876Z,979.71
2019-02-15T04:38:37.871Z,979.68
2019-02-15T04:39:37.868Z,979.69
2019-02-15T04:40:37.848Z,979.63
2019-02-15T04:41:37.845Z,979.65
2019-02-15T04:42:37.828Z,979.64
2019-02-15T04:43:37.833Z,979.62
2019-02-15T04:44:42.887Z,979.61
2019-02-15T04:45:37.800Z,979.64
2019-02-15T04:46:37.793Z,979.67
2019-02-15T04:47:37.778Z,979.66
2019-02-15T04:48:37.779Z,979.64
2019-02-15T04:49:37.763Z,979.67
2019-02-15T04:50:37.761Z,979.63
2019-02-15T04:51:37.741Z,979.70
2019-02-15T04:52:37.733Z,979.70
2019-02-15T04:53:37.741Z,979.66
2019-02-15T04:54:37.716Z,979.61
2019-02-15T04:55:37.709Z,979.65
2019-02-15T04:56:37.695Z,979.63
2019-02-15T04:57:37.688Z,979.67
2019-02-15T04:58:37.676Z,979.67
2019-02-15T04:59:37.670Z,979.65
2019-02-15T05:00:37.663Z,979.61
2019-02-15T05:01:37.657Z,979.64
2019-02-15T05:02:37.647Z,979.61
2019-02-15T05:03:37.628Z,979.61
2019-02-15T05:04:37.622Z,979.63
2019-02-15T05:05:37.613Z,979.65
2019-02-15T05:06:37.599Z,979.63
2019-02-15T05:07:37.591Z,979.60
2019-02-15T05:08:37.583Z,979.60
2019-02-15T05:09:37.573Z,979.60
2019-02-15T05:10:37.564Z,979.55
2019-02-15T05:11:37.579Z,979.57
2019-02-15T05:12:37.544Z,979.58
2019-02-15T05:13:37.557Z,979.53
2019-02-15T05:14:37.525Z,979.54
2019-02-15T05:15:37.522Z,979.54
2019-02-15T05:16:37.511Z,979.58
2019-02-15T05:17:37.500Z,979.53
2019-02-15T05:18:37.487Z,979.57
2019-02-15T05:19:37.480Z,979.59
2019-02-15T05:20:37.476Z,979.54
2019-02-15T05:21:37.466Z,979.59
2019-02-15T05:22:37.454Z,979.56
2019-02-15T05:23:37.441Z,979.56
2019-02-15T05:24:37.435Z,979.56
2019-02-15T05:25:34.855Z,979.55
2019-02-15T05:26:34.721Z,979.56
2019-02-15T05:28:27.657Z,979.55
2019-02-15T05:29:27.263Z,979.52
2019-02-15T05:31:21.625Z,979.54
2019-02-15T05:32:21.134Z,979.49
2019-02-15T05:34:15.430Z,979.51
2019-02-15T05:35:15.028Z,979.51
2019-02-15T05:37:08.693Z,979.49
2019-02-15T05:38:08.686Z,979.49
2019-02-15T05:40:01.639Z,979.43
2019-02-15T05:41:01.496Z,979.46
2019-02-15T05:42:54.295Z,979.47
2019-02-15T05:43:54.172Z,979.45
2019-02-15T05:45:47.220Z,979.48
2019-02-15T05:46:46.851Z,979.47
2019-02-15T05:48:40.150Z,979.50
2019-02-15T05:49:39.773Z,979.46
2019-02-15T05:51:33.472Z,979.45
2019-02-15T05:52:33.071Z,979.52
2019-02-15T05:54:26.254Z,979.45
2019-02-15T05:55:25.843Z,979.50
2019-02-15T05:57:19.566Z,979.47
2019-02-15T05:58:19.609Z,979.45
2019-02-15T06:00:12.304Z,979.50
2019-02-15T06:01:12.207Z,979.53
2019-02-15T06:03:05.232Z,979.55
2019-02-15T06:04:04.974Z,979.49
2019-02-15T06:05:58.179Z,979.49
2019-02-15T06:06:57.782Z,979.52
2019-02-15T06:08:50.900Z,979.52
2019-02-15T06:09:50.757Z,979.54
2019-02-15T06:11:44.252Z,979.47
2019-02-15T06:12:44.034Z,979.49
2019-02-15T06:14:37.615Z,979.50
2019-02-15T06:15:37.273Z,979.48
2019-02-15T06:17:30.990Z,979.50
2019-02-15T06:18:30.724Z,979.46
2019-02-15T06:20:23.841Z,979.44
2019-02-15T06:21:23.621Z,979.48
2019-02-15T06:23:17.203Z,979.55
2019-02-15T06:24:16.935Z,979.52
2019-02-15T06:26:10.008Z,979.52
2019-02-15T06:27:09.751Z,979.53
2019-02-15T06:29:02.798Z,979.49
2019-02-15T06:30:02.584Z,979.49
2019-02-15T06:31:55.727Z,979.54
2019-02-15T06:32:55.383Z,979.55
2019-02-15T06:34:48.583Z,979.57
2019-02-15T06:35:48.413Z,979.55
2019-02-15T06:37:41.297Z,979.52
2019-02-15T06:38:41.107Z,979.53
2019-02-15T06:40:34.265Z,979.52
2019-02-15T06:41:33.851Z,979.55
2019-02-15T06:43:27.470Z,979.53
2019-02-15T06:44:27.449Z,979.51
2019-02-15T06:46:20.466Z,979.57
2019-02-15T06:47:20.147Z,979.52
2019-02-15T06:49:13.740Z,979.59
2019-02-15T06:50:13.426Z,979.53
2019-02-15T06:52:07.121Z,979.64
2019-02-15T06:53:06.322Z,979.64
2019-02-15T06:54:59.864Z,979.68
2019-02-15T06:55:59.573Z,979.67
2019-02-15T06:57:52.687Z,979.72
2019-02-15T06:58:52.407Z,979.77
2019-02-15T07:00:45.579Z,979.82
2019-02-15T07:01:45.353Z,979.84
2019-02-15T07:03:40.120Z,979.84
2019-02-15T07:04:38.585Z,979.87
2019-02-15T07:06:31.694Z,979.87
2019-02-15T07:07:31.509Z,979.83
2019-02-15T07:09:25.140Z,980.05
2019-02-15T07:10:25.111Z,980.09
2019-02-15T07:12:18.039Z,980.15
2019-02-15T07:15:11.303Z,980.17
2019-02-15T07:16:10.933Z,980.20
2019-02-15T07:18:03.816Z,980.20
2019-02-15T07:19:03.785Z,980.25
2019-02-15T07:20:03.780Z,980.33
2019-02-15T07:21:03.786Z,980.33
2019-02-15T07:22:03.814Z,980.26
2019-02-15T07:23:03.768Z,980.33
2019-02-15T07:24:03.775Z,980.29
2019-02-15T07:25:03.816Z,980.36
2019-02-15T07:26:03.743Z,980.31
2019-02-15T07:27:03.746Z,980.39
2019-02-15T07:28:03.740Z,980.36
2019-02-15T07:29:03.735Z,980.32
2019-02-15T07:30:03.732Z,980.19
2019-02-15T07:31:03.731Z,980.11
2019-02-15T07:32:03.733Z,980.10
2019-02-15T07:33:03.726Z,980.14
2019-02-15T07:34:03.726Z,980.11
2019-02-15T07:35:03.722Z,980.08
2019-02-15T07:36:03.720Z,980.11
2019-02-15T07:37:03.718Z,980.05
2019-02-15T07:38:03.714Z,980.12
2019-02-15T07:39:03.713Z,980.11
2019-02-15T07:40:03.708Z,980.11
2019-02-15T07:41:03.705Z,980.09
2019-02-15T07:42:03.708Z,980.08
2019-02-15T07:43:03.696Z,980.08
2019-02-15T07:44:03.695Z,980.10
2019-02-15T07:45:03.691Z,980.06
2019-02-15T07:46:03.686Z,980.03
2019-02-15T07:47:03.680Z,980.05
2019-02-15T07:48:03.676Z,980.07
2019-02-15T07:49:03.672Z,980.09
2019-02-15T07:50:03.666Z,980.09
2019-02-15T07:51:09.646Z,980.08
2019-02-15T07:52:03.664Z,980.09
2019-02-15T07:53:03.684Z,980.08
2019-02-15T07:54:03.646Z,980.07
2019-02-15T07:55:03.676Z,980.08
2019-02-15T07:56:03.656Z,980.06
2019-02-15T07:57:03.628Z,980.03
2019-02-15T07:58:03.624Z,980.06
2019-02-15T07:59:03.620Z,980.05
2019-02-15T08:00:03.614Z,980.07
2019-02-15T08:01:03.606Z,980.02
2019-02-15T08:02:05.362Z,980.06
2019-02-15T08:03:03.596Z,980.06
2019-02-15T08:04:03.593Z,980.02
2019-02-15T08:05:03.584Z,980.05
2019-02-15T08:06:03.578Z,980.05
2019-02-15T08:07:03.577Z,980.03
2019-02-15T08:08:03.566Z,980.05
2019-02-15T08:09:03.559Z,980.06
2019-02-15T08:10:03.554Z,980.04
2019-02-15T08:11:03.552Z,980.03
2019-02-15T08:12:03.547Z,979.99
2019-02-15T08:13:03.536Z,980.01
2019-02-15T08:14:03.530Z,980.01
2019-02-15T08:15:03.524Z,980.01
2019-02-15T08:16:03.518Z,980.01
2019-02-15T08:17:03.514Z,980.00
2019-02-15T08:18:03.504Z,980.04
2019-02-15T08:19:03.503Z,980.02
2019-02-15T08:20:03.499Z,980.00
2019-02-15T08:21:03.487Z,980.05
2019-02-15T08:22:03.497Z,980.07
2019-02-15T08:23:03.474Z,980.20
2019-02-15T08:24:03.466Z,980.30
2019-02-15T08:25:03.460Z,980.50
2019-02-15T08:26:03.456Z,980.76
2019-02-15T08:27:03.452Z,980.66
2019-02-15T08:28:03.456Z,980.66
2019-02-15T08:29:03.440Z,980.62
2019-02-15T08:30:03.443Z,980.58
2019-02-15T08:31:03.430Z,980.44
2019-02-15T08:32:03.425Z,980.65
2019-02-15T08:33:03.427Z,980.90
2019-02-15T08:34:03.422Z,980.90
2019-02-15T08:35:03.419Z,980.87
2019-02-15T08:36:03.416Z,980.75
2019-02-15T08:37:03.440Z,980.56
2019-02-15T08:38:03.416Z,980.53
2019-02-15T08:39:03.414Z,980.50
2019-02-15T08:40:03.417Z,980.53
2019-02-15T08:41:03.414Z,980.83
2019-02-15T08:42:04.636Z,980.93
2019-02-15T08:43:03.419Z,980.78
2019-02-15T08:44:03.420Z,980.78
2019-02-15T08:45:03.437Z,980.60
2019-02-15T08:46:03.518Z,980.79
2019-02-15T08:47:03.420Z,980.98
2019-02-15T08:48:03.449Z,980.94
2019-02-15T08:49:03.423Z,980.77
2019-02-15T08:50:03.455Z,980.74
2019-02-15T08:51:03.427Z,980.83
2019-02-15T08:52:03.431Z,980.78
2019-02-15T08:53:03.438Z,980.75
2019-02-15T08:54:03.457Z,980.90
2019-02-15T08:55:03.487Z,981.05
2019-02-15T08:56:03.491Z,981.24
2019-02-15T08:57:03.491Z,981.24
2019-02-15T08:58:03.456Z,981.24
2019-02-15T08:59:03.473Z,981.25
2019-02-15T09:00:03.486Z,981.27
2019-02-15T09:01:03.471Z,981.36
2019-02-15T09:02:03.474Z,981.29
2019-02-15T09:03:03.483Z,981.22
2019-02-15T09:04:03.487Z,981.20
2019-02-15T09:05:03.501Z,981.28
2019-02-15T09:06:03.499Z,981.32
2019-02-15T09:07:03.505Z,981.19
2019-02-15T09:08:03.516Z,981.05
2019-02-15T09:09:03.520Z,981.11
2019-02-15T09:10:03.528Z,981.20
2019-02-15T09:11:03.538Z,981.30
2019-02-15T09:12:03.542Z,981.44
2019-02-15T09:13:03.552Z,981.45
2019-02-15T09:14:03.568Z,981.50
2019-02-15T09:15:03.612Z,981.41
2019-02-15T09:16:10.020Z,981.48
2019-02-15T09:17:03.580Z,981.48
2019-02-15T09:18:03.587Z,981.50
2019-02-15T09:19:03.607Z,981.50
2019-02-15T09:20:03.609Z,981.45
2019-02-15T09:21:03.617Z,981.49
2019-02-15T09:22:03.649Z,981.42
2019-02-15T09:23:03.656Z,981.42
2019-02-15T09:24:03.648Z,981.45
2019-02-15T09:25:03.656Z,981.45
2019-02-15T09:26:03.668Z,981.40
2019-02-15T09:27:03.677Z,981.39
2019-02-15T09:28:03.693Z,981.42
2019-02-15T09:29:03.700Z,981.40
2019-02-15T09:30:03.710Z,981.38
2019-02-15T09:31:03.721Z,981.38
2019-02-15T09:32:03.735Z,981.33
2019-02-15T09:33:03.745Z,981.37
2019-02-15T09:34:03.758Z,981.30
2019-02-15T09:35:03.770Z,981.31
2019-02-15T09:36:03.784Z,981.30
2019-02-15T09:37:03.794Z,981.29
2019-02-15T09:38:03.805Z,981.34
2019-02-15T09:39:03.819Z,981.30
2019-02-15T09:40:03.831Z,981.27
2019-02-15T09:41:03.844Z,981.26
2019-02-15T09:42:03.859Z,981.28
2019-02-15T09:43:03.871Z,981.25
2019-02-15T09:44:03.889Z,981.27
2019-02-15T09:45:03.897Z,981.26
2019-02-15T09:46:03.909Z,981.27
2019-02-15T09:47:03.927Z,981.23
2019-02-15T09:48:03.937Z,981.25
2019-02-15T09:49:04.448Z,981.27
2019-02-15T09:50:05.126Z,981.23
2019-02-15T09:51:03.977Z,981.16
2019-02-15T09:52:04.067Z,981.18
2019-02-15T09:53:04.004Z,981.19
2019-02-15T09:54:04.024Z,981.19
2019-02-15T09:55:04.042Z,981.18
2019-02-15T09:56:04.136Z,981.16
2019-02-15T09:57:04.061Z,981.14
2019-02-15T09:58:04.079Z,981.09
2019-02-15T09:59:04.087Z,981.15
2019-02-15T10:00:04.111Z,981.16
2019-02-15T10:01:04.119Z,981.15
2019-02-15T10:02:04.131Z,981.13
2019-02-15T10:03:04.147Z,981.09
2019-02-15T10:04:04.164Z,981.08
2019-02-15T10:05:04.187Z,981.08
2019-02-15T10:06:04.194Z,981.09
2019-02-15T10:07:04.211Z,981.05
2019-02-15T10:08:04.226Z,981.06
2019-02-15T10:09:04.242Z,981.04
2019-02-15T10:10:04.560Z,981.07
2019-02-15T10:11:04.300Z,981.07
2019-02-15T10:12:04.290Z,981.06
2019-02-15T10:13:04.307Z,981.06
2019-02-15T10:14:04.354Z,981.06
2019-02-15T10:15:04.341Z,981.09
2019-02-15T10:16:04.359Z,981.06
2019-02-15T10:17:04.383Z,981.08
2019-02-15T10:18:04.415Z,981.11
2019-02-15T10:19:04.401Z,981.02
2019-02-15T10:20:04.460Z,980.96
2019-02-15T10:21:04.435Z,980.95
2019-02-15T10:22:04.450Z,980.95
2019-02-15T10:23:04.490Z,980.88
2019-02-15T10:24:04.486Z,980.90
2019-02-15T10:25:04.553Z,980.90
2019-02-15T10:26:04.593Z,980.90
2019-02-15T10:27:04.560Z,980.90
2019-02-15T10:28:04.549Z,980.89
2019-02-15T10:29:04.582Z,980.83
2019-02-15T10:30:04.583Z,980.87
2019-02-15T10:31:04.604Z,980.88
2019-02-15T10:32:04.623Z,980.86
2019-02-15T10:33:04.668Z,980.89
2019-02-15T10:34:04.689Z,980.84
2019-02-15T10:35:04.719Z,980.83
2019-02-15T10:36:04.688Z,980.80
2019-02-15T10:37:04.740Z,980.82
2019-02-15T10:38:04.778Z,980.65
2019-02-15T10:39:04.732Z,980.38
2019-02-15T10:40:04.747Z,980.19
2019-02-15T10:41:04.816Z,980.18
2019-02-15T10:42:04.782Z,980.15
2019-02-15T10:43:04.797Z,980.10
2019-02-15T10:44:04.820Z,980.09
2019-02-15T10:45:04.830Z,980.08
2019-02-15T10:46:04.845Z,980.05
2019-02-15T10:47:13.597Z,980.02
2019-02-15T10:48:04.876Z,979.96
2019-02-15T10:49:04.892Z,979.94
2019-02-15T10:50:05.240Z,979.94
2019-02-15T10:51:04.915Z,979.97
2019-02-15T10:52:04.924Z,979.87
2019-02-15T10:53:04.937Z,979.88
2019-02-15T10:54:04.950Z,979.83
2019-02-15T10:55:04.995Z,979.83
2019-02-15T10:56:04.975Z,979.86
2019-02-15T10:57:04.979Z,979.89
2019-02-15T10:58:04.989Z,979.89
2019-02-15T10:59:05.000Z,979.85
2019-02-15T11:00:05.009Z,979.84
2019-02-15T11:01:05.018Z,979.84
2019-02-15T11:02:05.028Z,979.82
2019-02-15T11:03:05.034Z,979.82
2019-02-15T11:04:05.044Z,979.82
2019-02-15T11:05:05.055Z,979.81
2019-02-15T11:06:05.061Z,979.78
2019-02-15T11:07:05.069Z,979.75
2019-02-15T11:08:05.076Z,979.76
2019-02-15T11:09:05.082Z,979.71
2019-02-15T11:10:05.164Z,979.70
2019-02-15T11:11:05.100Z,979.69
2019-02-15T11:12:05.108Z,979.68
2019-02-15T11:13:05.113Z,979.63
2019-02-15T11:14:05.118Z,979.65
2019-02-15T11:15:05.127Z,979.61
2019-02-15T11:16:05.143Z,979.62
2019-02-15T11:17:05.138Z,979.60
2019-02-15T11:18:05.174Z,979.58
2019-02-15T11:19:05.144Z,979.60
2019-02-15T11:20:05.155Z,979.57
2019-02-15T11:21:05.169Z,979.55
2019-02-15T11:22:05.166Z,979.56
2019-02-15T11:23:05.176Z,979.52
2019-02-15T11:24:05.211Z,979.54
2019-02-15T11:25:05.185Z,979.51
2019-02-15T11:26:05.193Z,979.49
2019-02-15T11:27:05.198Z,979.48
2019-02-15T11:28:05.204Z,979.48
2019-02-15T11:29:05.218Z,979.46
2019-02-15T11:30:05.212Z,979.43
2019-02-15T11:31:05.218Z,979.46
2019-02-15T11:32:05.234Z,979.44
2019-02-15T11:33:05.230Z,979.46
2019-02-15T11:34:05.239Z,979.41
2019-02-15T11:35:05.241Z,979.38
2019-02-15T11:36:05.250Z,979.36
2019-02-15T11:37:05.254Z,979.40
2019-02-15T11:38:05.266Z,979.36
2019-02-15T11:39:05.265Z,979.35
2019-02-15T11:40:05.532Z,979.32
2019-02-15T11:41:11.108Z,979.30
2019-02-15T11:42:05.307Z,979.30
2019-02-15T11:43:05.285Z,979.30
2019-02-15T11:44:05.294Z,979.27
2019-02-15T11:45:05.309Z,979.24
2019-02-15T11:46:05.307Z,979.23
2019-02-15T11:47:05.309Z,979.23
2019-02-15T11:48:05.342Z,979.24
2019-02-15T11:49:05.337Z,979.23
2019-02-15T11:50:26.333Z,979.18
2019-02-15T11:51:05.327Z,979.21
2019-02-15T11:52:05.371Z,979.19
2019-02-15T11:53:05.338Z,979.15
2019-02-15T11:54:05.344Z,979.20
2019-02-15T11:55:05.350Z,979.16
2019-02-15T11:56:05.373Z,979.15
2019-02-15T11:57:05.391Z,979.11
2019-02-15T11:58:05.392Z,979.09
2019-02-15T11:59:05.390Z,979.12
2019-02-15T12:00:13.865Z,979.06
2019-02-15T12:01:05.411Z,979.08
2019-02-15T12:02:06.480Z,979.07
2019-02-15T12:03:05.393Z,979.09
2019-02-15T12:04:05.393Z,979.08
2019-02-15T12:05:05.399Z,979.09
2019-02-15T12:06:05.404Z,979.10
2019-02-15T12:07:05.439Z,979.07
2019-02-15T12:08:05.426Z,979.09
2019-02-15T12:09:05.446Z,979.08
2019-02-15T12:10:05.465Z,979.10
2019-02-15T12:11:05.434Z,979.10
2019-02-15T12:12:10.686Z,979.13
2019-02-15T12:13:05.444Z,979.08
2019-02-15T12:14:05.450Z,979.12
2019-02-15T12:15:05.450Z,979.07
2019-02-15T12:16:05.460Z,979.07
2019-02-15T12:17:05.979Z,979.05
2019-02-15T12:18:05.467Z,979.09
2019-02-15T12:19:05.506Z,979.03
2019-02-15T12:20:05.494Z,979.04
2019-02-15T12:21:05.475Z,979.02
2019-02-15T12:22:05.650Z,979.01
2019-02-15T12:23:05.485Z,979.04
2019-02-15T12:24:05.493Z,979.03
2019-02-15T12:25:05.496Z,979.05
2019-02-15T12:26:05.506Z,979.04
2019-02-15T12:27:05.513Z,979.00
2019-02-15T12:28:05.512Z,979.02
2019-02-15T12:29:05.515Z,979.01
2019-02-15T12:30:05.517Z,979.04
2019-02-15T12:31:05.530Z,978.99
2019-02-15T12:32:05.528Z,978.99
2019-02-15T12:33:05.538Z,978.96
2019-02-15T12:34:07.334Z,978.94
2019-02-15T12:35:05.540Z,978.96
2019-02-15T12:36:05.569Z,978.98
2019-02-15T12:37:05.551Z,978.95
2019-02-15T12:38:05.557Z,978.92
2019-02-15T12:39:05.558Z,978.94
2019-02-15T12:40:05.563Z,978.90
2019-02-15T12:41:05.570Z,978.93
2019-02-15T12:42:05.574Z,978.87
2019-02-15T12:43:05.575Z,978.91
2019-02-15T12:44:05.600Z,978.85
2019-02-15T12:45:05.594Z,978.86
2019-02-15T12:46:05.601Z,978.85
2019-02-15T12:47:14.652Z,978.83
2019-02-15T12:48:05.598Z,978.80
2019-02-15T12:49:05.612Z,978.79
2019-02-15T12:50:05.609Z,978.78
2019-02-15T12:51:05.992Z,978.73
2019-02-15T12:52:05.619Z,978.74
2019-02-15T12:53:05.620Z,978.73
2019-02-15T12:54:05.623Z,978.72
2019-02-15T12:55:05.632Z,978.73
2019-02-15T12:56:05.632Z,978.74
2019-02-15T12:57:05.638Z,978.72
2019-02-15T12:58:05.640Z,978.69
2019-02-15T12:59:05.671Z,978.70
2019-02-15T13:00:05.650Z,978.65
2019-02-15T13:01:05.652Z,978.60
2019-02-15T13:02:05.655Z,978.60
2019-02-15T13:03:05.671Z,978.61
2019-02-15T13:04:05.665Z,978.61